Terminal Aerodrome Forecast
Issued by NWS Cleveland, OH

Home | Current Version | Previous Version | Text Only | Print | Product List | Glossary Off
Versions: 1 2 3 4 5 6 7 8 9 10 11 12 13 14 15 16 17 18 19 20 21 22 23 24 25 26

000
FTUS41 KCLE 250200 AAA
TAFYNG
TAF AMD
KYNG 250231Z 2503/2524 25010KT 5SM BR OVC005
     FM250700 26006KT P6SM VCSH OVC008
     FM251400 VRB03KT 2SM -SN OVC007
     FM251800 04006KT 1 1/2SM -SN BR OVC005=

USA.gov is the U.S. government's official web portal to all federal, state and local government web resources and services.